sensor_id;sensor_type;location;lat;lon;timestamp;P1;durP1;ratioP1;P2;durP2;ratioP2
34481;SDS011;20720;48.886;9.388;2022-11-15T00:00:26;4.22;;;1.42;;
34481;SDS011;20720;48.886;9.388;2022-11-15T00:02:52;3.85;;;1.50;;
34481;SDS011;20720;48.886;9.388;2022-11-15T00:05:18;2.83;;;1.40;;
34481;SDS011;20720;48.886;9.388;2022-11-15T00:07:43;2.42;;;1.20;;
34481;SDS011;20720;48.886;9.388;2022-11-15T00:10:08;2.35;;;1.20;;
34481;SDS011;20720;48.886;9.388;2022-11-15T00:12:34;3.03;;;1.00;;
34481;SDS011;20720;48.886;9.388;2022-11-15T00:14:59;2.22;;;1.10;;
34481;SDS011;20720;48.886;9.388;2022-11-15T00:17:24;4.30;;;1.02;;
34481;SDS011;20720;48.886;9.388;2022-11-15T00:19:50;2.40;;;1.20;;
34481;SDS011;20720;48.886;9.388;2022-11-15T00:22:15;4.10;;;1.30;;
34481;SDS011;20720;48.886;9.388;2022-11-15T00:24:40;2.10;;;0.98;;
34481;SDS011;20720;48.886;9.388;2022-11-15T00:27:05;2.85;;;0.93;;
34481;SDS011;20720;48.886;9.388;2022-11-15T00:29:31;3.47;;;1.40;;
34481;SDS011;20720;48.886;9.388;2022-11-15T00:31:56;4.53;;;1.35;;
34481;SDS011;20720;48.886;9.388;2022-11-15T00:34:21;3.13;;;1.33;;
34481;SDS011;20720;48.886;9.388;2022-11-15T00:36:46;3.67;;;1.63;;
34481;SDS011;20720;48.886;9.388;2022-11-15T00:39:12;2.75;;;1.23;;
34481;SDS011;20720;48.886;9.388;2022-11-15T00:41:37;3.55;;;1.33;;
34481;SDS011;20720;48.886;9.388;2022-11-15T00:44:02;2.78;;;1.40;;
34481;SDS011;20720;48.886;9.388;2022-11-15T00:46:28;2.92;;;1.40;;
34481;SDS011;20720;48.886;9.388;2022-11-15T00:48:53;2.30;;;1.20;;
34481;SDS011;20720;48.886;9.388;2022-11-15T00:51:18;2.72;;;1.13;;
34481;SDS011;20720;48.886;9.388;2022-11-15T00:53:44;3.13;;;1.20;;
34481;SDS011;20720;48.886;9.388;2022-11-15T00:56:09;2.83;;;1.23;;
34481;SDS011;20720;48.886;9.388;2022-11-15T00:58:34;2.63;;;1.40;;
34481;SDS011;20720;48.886;9.388;2022-11-15T01:01:07;1.98;;;1.00;;
34481;SDS011;20720;48.886;9.388;2022-11-15T01:03:37;2.58;;;1.23;;
34481;SDS011;20720;48.886;9.388;2022-11-15T01:06:03;2.35;;;1.02;;
34481;SDS011;20720;48.886;9.388;2022-11-15T01:08:29;3.10;;;1.35;;
34481;SDS011;20720;48.886;9.388;2022-11-15T01:10:54;2.75;;;1.30;;
34481;SDS011;20720;48.886;9.388;2022-11-15T01:13:29;2.45;;;1.60;;
34481;SDS011;20720;48.886;9.388;2022-11-15T01:15:56;2.00;;;1.10;;
34481;SDS011;20720;48.886;9.388;2022-11-15T01:18:21;3.25;;;1.55;;
34481;SDS011;20720;48.886;9.388;2022-11-15T01:20:46;3.47;;;1.42;;
34481;SDS011;20720;48.886;9.388;2022-11-15T01:23:12;2.10;;;1.10;;
34481;SDS011;20720;48.886;9.388;2022-11-15T01:25:37;6.00;;;1.35;;
34481;SDS011;20720;48.886;9.388;2022-11-15T01:28:02;3.72;;;1.60;;
34481;SDS011;20720;48.886;9.388;2022-11-15T01:30:28;3.72;;;1.63;;
34481;SDS011;20720;48.886;9.388;2022-11-15T01:32:53;3.83;;;1.40;;
34481;SDS011;20720;48.886;9.388;2022-11-15T01:35:18;2.70;;;1.35;;
34481;SDS011;20720;48.886;9.388;2022-11-15T01:37:45;4.68;;;1.40;;
34481;SDS011;20720;48.886;9.388;2022-11-15T01:40:10;3.30;;;1.30;;
34481;SDS011;20720;48.886;9.388;2022-11-15T01:42:35;4.45;;;1.55;;
34481;SDS011;20720;48.886;9.388;2022-11-15T01:45:01;2.42;;;1.08;;
34481;SDS011;20720;48.886;9.388;2022-11-15T01:47:28;3.03;;;1.40;;
34481;SDS011;20720;48.886;9.388;2022-11-15T01:49:59;5.75;;;1.45;;
34481;SDS011;20720;48.886;9.388;2022-11-15T01:52:27;4.00;;;1.30;;
34481;SDS011;20720;48.886;9.388;2022-11-15T01:57:27;3.88;;;1.67;;
34481;SDS011;20720;48.886;9.388;2022-11-15T01:59:54;3.40;;;1.45;;
34481;SDS011;20720;48.886;9.388;2022-11-15T02:02:20;3.75;;;1.45;;
34481;SDS011;20720;48.886;9.388;2022-11-15T02:04:46;3.97;;;1.73;;
34481;SDS011;20720;48.886;9.388;2022-11-15T02:07:13;3.10;;;1.40;;
34481;SDS011;20720;48.886;9.388;2022-11-15T02:09:41;3.78;;;1.60;;
34481;SDS011;20720;48.886;9.388;2022-11-15T02:12:08;3.45;;;1.58;;
34481;SDS011;20720;48.886;9.388;2022-11-15T02:14:34;2.22;;;1.35;;
34481;SDS011;20720;48.886;9.388;2022-11-15T02:22:55;2.70;;;1.27;;
34481;SDS011;20720;48.886;9.388;2022-11-15T02:25:37;4.03;;;1.75;;
34481;SDS011;20720;48.886;9.388;2022-11-15T02:30:55;3.05;;;1.23;;
34481;SDS011;20720;48.886;9.388;2022-11-15T02:33:46;5.43;;;1.52;;
34481;SDS011;20720;48.886;9.388;2022-11-15T02:39:06;6.70;;;1.65;;
34481;SDS011;20720;48.886;9.388;2022-11-15T02:41:57;3.80;;;1.30;;
34481;SDS011;20720;48.886;9.388;2022-11-15T02:44:32;3.50;;;1.80;;
34481;SDS011;20720;48.886;9.388;2022-11-15T02:47:04;4.88;;;1.55;;
34481;SDS011;20720;48.886;9.388;2022-11-15T02:49:43;2.53;;;1.33;;
34481;SDS011;20720;48.886;9.388;2022-11-15T02:52:15;4.72;;;1.33;;
34481;SDS011;20720;48.886;9.388;2022-11-15T02:54:41;3.33;;;1.27;;
34481;SDS011;20720;48.886;9.388;2022-11-15T02:57:10;4.00;;;1.50;;
34481;SDS011;20720;48.886;9.388;2022-11-15T03:05:17;2.40;;;1.20;;
34481;SDS011;20720;48.886;9.388;2022-11-15T03:13:21;2.35;;;1.30;;
34481;SDS011;20720;48.886;9.388;2022-11-15T03:16:03;2.63;;;1.50;;
34481;SDS011;20720;48.886;9.388;2022-11-15T03:18:37;3.47;;;1.40;;
34481;SDS011;20720;48.886;9.388;2022-11-15T03:21:06;3.03;;;1.42;;
34481;SDS011;20720;48.886;9.388;2022-11-15T03:23:34;3.22;;;1.48;;
34481;SDS011;20720;48.886;9.388;2022-11-15T03:26:00;10.10;;;1.45;;
34481;SDS011;20720;48.886;9.388;2022-11-15T03:28:37;3.58;;;1.58;;
34481;SDS011;20720;48.886;9.388;2022-11-15T03:31:06;2.53;;;1.30;;
34481;SDS011;20720;48.886;9.388;2022-11-15T03:33:55;4.03;;;1.20;;
34481;SDS011;20720;48.886;9.388;2022-11-15T03:36:24;2.47;;;1.20;;
34481;SDS011;20720;48.886;9.388;2022-11-15T03:38:52;2.67;;;1.35;;
34481;SDS011;20720;48.886;9.388;2022-11-15T03:41:23;2.88;;;1.48;;
34481;SDS011;20720;48.886;9.388;2022-11-15T03:43:56;2.00;;;1.33;;
34481;SDS011;20720;48.886;9.388;2022-11-15T03:46:31;2.38;;;1.10;;
34481;SDS011;20720;48.886;9.388;2022-11-15T03:49:15;2.97;;;1.67;;
34481;SDS011;20720;48.886;9.388;2022-11-15T03:51:45;3.53;;;1.50;;
34481;SDS011;20720;48.886;9.388;2022-11-15T03:54:11;3.65;;;1.90;;
34481;SDS011;20720;48.886;9.388;2022-11-15T03:56:37;4.47;;;2.35;;
34481;SDS011;20720;48.886;9.388;2022-11-15T03:59:02;8.05;;;2.95;;
34481;SDS011;20720;48.886;9.388;2022-11-15T04:01:27;7.30;;;2.90;;
34481;SDS011;20720;48.886;9.388;2022-11-15T04:03:53;7.38;;;2.90;;
34481;SDS011;20720;48.886;9.388;2022-11-15T04:06:18;7.78;;;2.75;;
34481;SDS011;20720;48.886;9.388;2022-11-15T04:08:43;5.22;;;2.80;;
34481;SDS011;20720;48.886;9.388;2022-11-15T04:11:09;4.75;;;2.47;;
34481;SDS011;20720;48.886;9.388;2022-11-15T04:13:34;3.25;;;2.05;;
34481;SDS011;20720;48.886;9.388;2022-11-15T04:15:59;3.60;;;2.00;;
34481;SDS011;20720;48.886;9.388;2022-11-15T04:18:24;4.85;;;2.35;;
34481;SDS011;20720;48.886;9.388;2022-11-15T04:20:50;3.42;;;2.17;;
34481;SDS011;20720;48.886;9.388;2022-11-15T04:23:34;4.85;;;2.55;;
34481;SDS011;20720;48.886;9.388;2022-11-15T04:26:18;3.97;;;1.92;;
34481;SDS011;20720;48.886;9.388;2022-11-15T04:28:45;3.47;;;2.13;;
34481;SDS011;20720;48.886;9.388;2022-11-15T04:31:29;3.92;;;1.98;;
34481;SDS011;20720;48.886;9.388;2022-11-15T04:33:55;3.92;;;2.30;;
34481;SDS011;20720;48.886;9.388;2022-11-15T04:36:20;4.78;;;2.30;;
34481;SDS011;20720;48.886;9.388;2022-11-15T04:39:05;6.35;;;2.33;;
34481;SDS011;20720;48.886;9.388;2022-11-15T04:41:30;3.88;;;2.30;;
34481;SDS011;20720;48.886;9.388;2022-11-15T04:43:56;9.02;;;2.33;;
34481;SDS011;20720;48.886;9.388;2022-11-15T04:46:21;3.15;;;1.92;;
34481;SDS011;20720;48.886;9.388;2022-11-15T04:48:47;3.38;;;1.60;;
34481;SDS011;20720;48.886;9.388;2022-11-15T04:51:13;4.22;;;2.17;;
34481;SDS011;20720;48.886;9.388;2022-11-15T04:53:38;2.92;;;1.77;;
34481;SDS011;20720;48.886;9.388;2022-11-15T04:56:03;3.58;;;1.88;;
34481;SDS011;20720;48.886;9.388;2022-11-15T04:58:29;5.53;;;2.08;;
34481;SDS011;20720;48.886;9.388;2022-11-15T05:00:54;4.88;;;2.40;;
34481;SDS011;20720;48.886;9.388;2022-11-15T05:03:19;5.60;;;2.63;;
34481;SDS011;20720;48.886;9.388;2022-11-15T05:06:03;5.78;;;2.65;;
34481;SDS011;20720;48.886;9.388;2022-11-15T05:08:29;4.93;;;2.45;;
34481;SDS011;20720;48.886;9.388;2022-11-15T05:10:54;3.33;;;2.38;;
34481;SDS011;20720;48.886;9.388;2022-11-15T05:13:20;3.35;;;2.20;;
34481;SDS011;20720;48.886;9.388;2022-11-15T05:15:45;5.72;;;2.10;;
34481;SDS011;20720;48.886;9.388;2022-11-15T05:18:11;6.90;;;2.30;;
34481;SDS011;20720;48.886;9.388;2022-11-15T05:20:37;4.60;;;2.15;;
34481;SDS011;20720;48.886;9.388;2022-11-15T05:23:02;6.03;;;2.85;;
34481;SDS011;20720;48.886;9.388;2022-11-15T05:25:28;5.53;;;2.10;;
34481;SDS011;20720;48.886;9.388;2022-11-15T05:27:53;4.40;;;2.00;;
34481;SDS011;20720;48.886;9.388;2022-11-15T05:30:18;4.38;;;2.15;;
34481;SDS011;20720;48.886;9.388;2022-11-15T05:32:44;4.32;;;1.88;;
34481;SDS011;20720;48.886;9.388;2022-11-15T05:35:15;4.03;;;1.85;;
34481;SDS011;20720;48.886;9.388;2022-11-15T05:37:46;6.07;;;2.10;;
34481;SDS011;20720;48.886;9.388;2022-11-15T05:40:11;4.57;;;1.92;;
34481;SDS011;20720;48.886;9.388;2022-11-15T05:42:37;4.75;;;2.55;;
34481;SDS011;20720;48.886;9.388;2022-11-15T05:45:02;4.55;;;2.75;;
34481;SDS011;20720;48.886;9.388;2022-11-15T05:47:31;4.43;;;2.53;;
34481;SDS011;20720;48.886;9.388;2022-11-15T05:49:58;5.60;;;2.35;;
34481;SDS011;20720;48.886;9.388;2022-11-15T05:52:25;4.80;;;2.38;;
34481;SDS011;20720;48.886;9.388;2022-11-15T05:54:53;3.85;;;1.75;;
34481;SDS011;20720;48.886;9.388;2022-11-15T05:57:20;5.10;;;2.00;;
34481;SDS011;20720;48.886;9.388;2022-11-15T05:59:45;4.28;;;2.08;;
34481;SDS011;20720;48.886;9.388;2022-11-15T06:02:11;3.10;;;1.60;;
34481;SDS011;20720;48.886;9.388;2022-11-15T06:04:36;3.22;;;1.60;;
34481;SDS011;20720;48.886;9.388;2022-11-15T06:07:01;4.70;;;2.00;;
34481;SDS011;20720;48.886;9.388;2022-11-15T06:09:27;3.70;;;1.90;;
34481;SDS011;20720;48.886;9.388;2022-11-15T06:11:52;4.63;;;1.60;;
34481;SDS011;20720;48.886;9.388;2022-11-15T06:14:17;4.82;;;2.10;;
34481;SDS011;20720;48.886;9.388;2022-11-15T06:16:43;3.50;;;2.17;;
34481;SDS011;20720;48.886;9.388;2022-11-15T06:19:08;4.60;;;2.30;;
34481;SDS011;20720;48.886;9.388;2022-11-15T06:21:34;4.55;;;1.90;;
34481;SDS011;20720;48.886;9.388;2022-11-15T06:23:59;3.20;;;1.80;;
34481;SDS011;20720;48.886;9.388;2022-11-15T06:26:24;4.95;;;2.22;;
34481;SDS011;20720;48.886;9.388;2022-11-15T06:28:49;3.50;;;2.00;;
34481;SDS011;20720;48.886;9.388;2022-11-15T06:31:15;6.57;;;2.30;;
34481;SDS011;20720;48.886;9.388;2022-11-15T06:33:40;4.53;;;2.22;;
34481;SDS011;20720;48.886;9.388;2022-11-15T06:36:06;3.63;;;2.00;;
34481;SDS011;20720;48.886;9.388;2022-11-15T06:38:34;3.63;;;1.75;;
34481;SDS011;20720;48.886;9.388;2022-11-15T06:41:07;3.33;;;1.95;;
34481;SDS011;20720;48.886;9.388;2022-11-15T06:43:34;4.78;;;2.25;;
34481;SDS011;20720;48.886;9.388;2022-11-15T06:46:00;3.45;;;1.95;;
34481;SDS011;20720;48.886;9.388;2022-11-15T06:48:26;4.57;;;2.08;;
34481;SDS011;20720;48.886;9.388;2022-11-15T06:50:55;3.95;;;2.10;;
34481;SDS011;20720;48.886;9.388;2022-11-15T06:53:22;7.30;;;2.30;;
34481;SDS011;20720;48.886;9.388;2022-11-15T06:55:48;4.45;;;2.40;;
34481;SDS011;20720;48.886;9.388;2022-11-15T06:58:13;4.22;;;2.00;;
34481;SDS011;20720;48.886;9.388;2022-11-15T07:00:39;3.85;;;2.20;;
34481;SDS011;20720;48.886;9.388;2022-11-15T07:03:05;3.80;;;2.10;;
34481;SDS011;20720;48.886;9.388;2022-11-15T07:05:30;3.17;;;1.85;;
34481;SDS011;20720;48.886;9.388;2022-11-15T07:07:56;3.58;;;2.08;;
34481;SDS011;20720;48.886;9.388;2022-11-15T07:10:23;3.72;;;1.75;;
34481;SDS011;20720;48.886;9.388;2022-11-15T07:12:52;6.05;;;2.05;;
34481;SDS011;20720;48.886;9.388;2022-11-15T07:15:19;3.58;;;1.77;;
34481;SDS011;20720;48.886;9.388;2022-11-15T07:17:45;3.42;;;1.85;;
34481;SDS011;20720;48.886;9.388;2022-11-15T07:20:11;3.47;;;1.83;;
34481;SDS011;20720;48.886;9.388;2022-11-15T07:22:38;4.25;;;2.47;;
34481;SDS011;20720;48.886;9.388;2022-11-15T07:25:04;4.40;;;2.15;;
34481;SDS011;20720;48.886;9.388;2022-11-15T07:27:29;4.93;;;2.20;;
34481;SDS011;20720;48.886;9.388;2022-11-15T07:29:54;3.88;;;2.10;;
34481;SDS011;20720;48.886;9.388;2022-11-15T07:32:20;4.55;;;2.00;;
34481;SDS011;20720;48.886;9.388;2022-11-15T07:34:45;4.32;;;2.20;;
34481;SDS011;20720;48.886;9.388;2022-11-15T07:37:11;6.53;;;2.60;;
34481;SDS011;20720;48.886;9.388;2022-11-15T07:39:36;6.28;;;2.50;;
34481;SDS011;20720;48.886;9.388;2022-11-15T07:42:02;5.13;;;2.05;;
34481;SDS011;20720;48.886;9.388;2022-11-15T07:44:46;4.50;;;2.38;;
34481;SDS011;20720;48.886;9.388;2022-11-15T07:47:11;6.82;;;2.35;;
34481;SDS011;20720;48.886;9.388;2022-11-15T07:49:36;6.78;;;2.42;;
34481;SDS011;20720;48.886;9.388;2022-11-15T07:52:02;4.90;;;2.53;;
34481;SDS011;20720;48.886;9.388;2022-11-15T07:54:27;5.82;;;2.40;;
34481;SDS011;20720;48.886;9.388;2022-11-15T07:56:52;5.22;;;2.35;;
34481;SDS011;20720;48.886;9.388;2022-11-15T07:59:18;4.93;;;2.50;;
34481;SDS011;20720;48.886;9.388;2022-11-15T08:01:44;9.27;;;2.53;;
34481;SDS011;20720;48.886;9.388;2022-11-15T08:04:10;6.15;;;2.60;;
34481;SDS011;20720;48.886;9.388;2022-11-15T08:06:36;6.50;;;2.50;;
34481;SDS011;20720;48.886;9.388;2022-11-15T08:09:01;4.45;;;2.25;;
34481;SDS011;20720;48.886;9.388;2022-11-15T08:11:26;6.72;;;2.55;;
34481;SDS011;20720;48.886;9.388;2022-11-15T08:13:52;6.13;;;2.70;;
34481;SDS011;20720;48.886;9.388;2022-11-15T08:16:17;6.10;;;2.55;;
34481;SDS011;20720;48.886;9.388;2022-11-15T08:18:42;5.85;;;2.47;;
34481;SDS011;20720;48.886;9.388;2022-11-15T08:21:08;4.50;;;2.30;;
34481;SDS011;20720;48.886;9.388;2022-11-15T08:23:34;4.43;;;2.10;;
34481;SDS011;20720;48.886;9.388;2022-11-15T08:26:00;4.32;;;2.42;;
34481;SDS011;20720;48.886;9.388;2022-11-15T08:28:29;6.28;;;2.45;;
34481;SDS011;20720;48.886;9.388;2022-11-15T08:30:55;6.53;;;2.35;;
34481;SDS011;20720;48.886;9.388;2022-11-15T08:33:21;5.53;;;2.38;;
34481;SDS011;20720;48.886;9.388;2022-11-15T08:35:46;7.75;;;4.28;;
34481;SDS011;20720;48.886;9.388;2022-11-15T08:38:12;8.25;;;4.05;;
34481;SDS011;20720;48.886;9.388;2022-11-15T08:40:37;6.63;;;3.00;;
34481;SDS011;20720;48.886;9.388;2022-11-15T08:43:02;5.82;;;3.00;;
34481;SDS011;20720;48.886;9.388;2022-11-15T08:45:28;5.25;;;3.00;;
34481;SDS011;20720;48.886;9.388;2022-11-15T08:47:54;4.18;;;2.70;;
34481;SDS011;20720;48.886;9.388;2022-11-15T08:50:20;5.03;;;2.75;;
34481;SDS011;20720;48.886;9.388;2022-11-15T08:52:45;7.30;;;3.20;;
34481;SDS011;20720;48.886;9.388;2022-11-15T08:55:11;7.45;;;3.17;;
34481;SDS011;20720;48.886;9.388;2022-11-15T08:57:36;4.53;;;2.60;;
34481;SDS011;20720;48.886;9.388;2022-11-15T09:00:03;3.63;;;2.60;;
34481;SDS011;20720;48.886;9.388;2022-11-15T09:02:29;5.68;;;2.92;;
34481;SDS011;20720;48.886;9.388;2022-11-15T09:04:54;6.13;;;3.20;;
34481;SDS011;20720;48.886;9.388;2022-11-15T09:07:19;4.57;;;2.85;;
34481;SDS011;20720;48.886;9.388;2022-11-15T09:09:45;6.93;;;3.15;;
34481;SDS011;20720;48.886;9.388;2022-11-15T09:12:10;4.90;;;2.95;;
34481;SDS011;20720;48.886;9.388;2022-11-15T09:14:35;3.67;;;2.20;;
34481;SDS011;20720;48.886;9.388;2022-11-15T09:17:01;4.72;;;2.80;;
34481;SDS011;20720;48.886;9.388;2022-11-15T09:19:26;5.18;;;2.80;;
34481;SDS011;20720;48.886;9.388;2022-11-15T09:21:52;5.35;;;2.80;;
34481;SDS011;20720;48.886;9.388;2022-11-15T09:24:17;9.52;;;2.33;;
34481;SDS011;20720;48.886;9.388;2022-11-15T09:26:43;3.72;;;2.10;;
34481;SDS011;20720;48.886;9.388;2022-11-15T09:29:08;5.07;;;2.65;;
34481;SDS011;20720;48.886;9.388;2022-11-15T09:31:33;5.38;;;2.67;;
34481;SDS011;20720;48.886;9.388;2022-11-15T09:33:59;10.25;;;3.58;;
34481;SDS011;20720;48.886;9.388;2022-11-15T09:36:24;5.88;;;3.58;;
34481;SDS011;20720;48.886;9.388;2022-11-15T09:38:49;7.75;;;3.90;;
34481;SDS011;20720;48.886;9.388;2022-11-15T09:44:03;5.65;;;2.92;;
34481;SDS011;20720;48.886;9.388;2022-11-15T09:49:30;4.60;;;2.53;;
34481;SDS011;20720;48.886;9.388;2022-11-15T09:51:56;4.72;;;2.40;;
34481;SDS011;20720;48.886;9.388;2022-11-15T09:59:44;4.05;;;2.17;;
34481;SDS011;20720;48.886;9.388;2022-11-15T10:04:48;4.82;;;2.03;;
34481;SDS011;20720;48.886;9.388;2022-11-15T10:12:55;3.15;;;1.60;;
34481;SDS011;20720;48.886;9.388;2022-11-15T10:15:23;4.00;;;1.48;;
34481;SDS011;20720;48.886;9.388;2022-11-15T10:20:20;4.55;;;1.30;;
34481;SDS011;20720;48.886;9.388;2022-11-15T10:22:50;3.28;;;1.48;;
34481;SDS011;20720;48.886;9.388;2022-11-15T10:25:25;2.92;;;1.50;;
34481;SDS011;20720;48.886;9.388;2022-11-15T10:28:01;7.10;;;1.67;;
34481;SDS011;20720;48.886;9.388;2022-11-15T10:30:41;3.40;;;1.65;;
34481;SDS011;20720;48.886;9.388;2022-11-15T10:33:11;3.90;;;1.83;;
34481;SDS011;20720;48.886;9.388;2022-11-15T10:35:42;3.25;;;1.70;;
34481;SDS011;20720;48.886;9.388;2022-11-15T10:38:09;4.15;;;1.75;;
34481;SDS011;20720;48.886;9.388;2022-11-15T10:40:37;4.93;;;1.70;;
34481;SDS011;20720;48.886;9.388;2022-11-15T10:45:35;3.40;;;1.40;;
34481;SDS011;20720;48.886;9.388;2022-11-15T10:48:18;3.63;;;1.60;;
34481;SDS011;20720;48.886;9.388;2022-11-15T10:50:46;2.60;;;1.52;;
34481;SDS011;20720;48.886;9.388;2022-11-15T10:53:18;5.45;;;2.00;;
34481;SDS011;20720;48.886;9.388;2022-11-15T10:55:48;3.95;;;1.70;;
34481;SDS011;20720;48.886;9.388;2022-11-15T10:58:22;3.58;;;1.70;;
34481;SDS011;20720;48.886;9.388;2022-11-15T11:00:56;5.10;;;2.10;;
34481;SDS011;20720;48.886;9.388;2022-11-15T11:04:07;7.05;;;2.20;;
34481;SDS011;20720;48.886;9.388;2022-11-15T11:09:19;4.32;;;1.85;;
34481;SDS011;20720;48.886;9.388;2022-11-15T11:11:47;2.85;;;1.90;;
34481;SDS011;20720;48.886;9.388;2022-11-15T11:14:23;4.93;;;1.80;;
34481;SDS011;20720;48.886;9.388;2022-11-15T11:30:18;9.98;;;5.38;;
34481;SDS011;20720;48.886;9.388;2022-11-15T11:43:52;5.65;;;2.47;;
34481;SDS011;20720;48.886;9.388;2022-11-15T11:46:36;3.80;;;2.17;;
34481;SDS011;20720;48.886;9.388;2022-11-15T11:49:10;5.10;;;2.05;;
34481;SDS011;20720;48.886;9.388;2022-11-15T11:54:17;3.65;;;2.17;;
34481;SDS011;20720;48.886;9.388;2022-11-15T11:56:48;3.92;;;2.15;;
34481;SDS011;20720;48.886;9.388;2022-11-15T12:02:07;5.50;;;2.30;;
34481;SDS011;20720;48.886;9.388;2022-11-15T12:04:40;3.58;;;2.30;;
34481;SDS011;20720;48.886;9.388;2022-11-15T12:14:56;4.85;;;2.30;;
34481;SDS011;20720;48.886;9.388;2022-11-15T12:17:26;4.65;;;2.13;;
34481;SDS011;20720;48.886;9.388;2022-11-15T12:19:57;5.28;;;2.47;;
34481;SDS011;20720;48.886;9.388;2022-11-15T12:25:05;7.22;;;3.13;;
34481;SDS011;20720;48.886;9.388;2022-11-15T12:27:40;5.85;;;3.03;;
34481;SDS011;20720;48.886;9.388;2022-11-15T12:30:12;6.10;;;2.72;;
34481;SDS011;20720;48.886;9.388;2022-11-15T12:32:49;5.13;;;2.60;;
34481;SDS011;20720;48.886;9.388;2022-11-15T12:35:21;6.57;;;3.15;;
34481;SDS011;20720;48.886;9.388;2022-11-15T12:38:02;5.45;;;2.78;;
34481;SDS011;20720;48.886;9.388;2022-11-15T12:45:30;3.80;;;1.98;;
34481;SDS011;20720;48.886;9.388;2022-11-15T12:50:52;3.63;;;1.75;;
34481;SDS011;20720;48.886;9.388;2022-11-15T13:06:50;1.88;;;1.05;;
34481;SDS011;20720;48.886;9.388;2022-11-15T13:14:52;2.90;;;1.05;;
34481;SDS011;20720;48.886;9.388;2022-11-15T13:19:43;5.60;;;1.10;;
34481;SDS011;20720;48.886;9.388;2022-11-15T13:22:11;1.80;;;0.98;;
34481;SDS011;20720;48.886;9.388;2022-11-15T13:24:55;3.17;;;1.38;;
34481;SDS011;20720;48.886;9.388;2022-11-15T13:27:21;2.53;;;0.95;;
34481;SDS011;20720;48.886;9.388;2022-11-15T13:29:47;2.67;;;0.90;;
34481;SDS011;20720;48.886;9.388;2022-11-15T13:32:13;3.17;;;0.90;;
34481;SDS011;20720;48.886;9.388;2022-11-15T13:34:43;2.80;;;1.08;;
34481;SDS011;20720;48.886;9.388;2022-11-15T13:39:45;3.25;;;1.15;;
34481;SDS011;20720;48.886;9.388;2022-11-15T13:42:14;1.73;;;0.70;;
34481;SDS011;20720;48.886;9.388;2022-11-15T13:44:54;3.63;;;0.90;;
34481;SDS011;20720;48.886;9.388;2022-11-15T13:47:21;2.85;;;0.90;;
34481;SDS011;20720;48.886;9.388;2022-11-15T13:49:46;2.38;;;1.05;;
34481;SDS011;20720;48.886;9.388;2022-11-15T13:52:12;2.88;;;0.98;;
34481;SDS011;20720;48.886;9.388;2022-11-15T13:54:43;3.28;;;1.05;;
34481;SDS011;20720;48.886;9.388;2022-11-15T13:57:25;2.20;;;1.25;;
34481;SDS011;20720;48.886;9.388;2022-11-15T13:59:57;3.97;;;1.60;;
34481;SDS011;20720;48.886;9.388;2022-11-15T14:02:29;4.50;;;1.40;;
34481;SDS011;20720;48.886;9.388;2022-11-15T14:04:58;3.50;;;1.40;;
34481;SDS011;20720;48.886;9.388;2022-11-15T14:07:36;2.58;;;1.13;;
34481;SDS011;20720;48.886;9.388;2022-11-15T14:13:04;3.50;;;0.90;;
34481;SDS011;20720;48.886;9.388;2022-11-15T14:15:36;1.90;;;1.03;;
34481;SDS011;20720;48.886;9.388;2022-11-15T14:18:03;3.05;;;1.20;;
34481;SDS011;20720;48.886;9.388;2022-11-15T14:20:33;3.47;;;1.33;;
34481;SDS011;20720;48.886;9.388;2022-11-15T14:23:02;9.98;;;3.15;;
34481;SDS011;20720;48.886;9.388;2022-11-15T14:25:52;8.00;;;4.00;;
34481;SDS011;20720;48.886;9.388;2022-11-15T14:30:44;6.57;;;3.20;;
34481;SDS011;20720;48.886;9.388;2022-11-15T14:33:22;6.15;;;2.50;;
34481;SDS011;20720;48.886;9.388;2022-11-15T14:35:50;6.38;;;2.83;;
34481;SDS011;20720;48.886;9.388;2022-11-15T14:38:17;3.47;;;1.80;;
34481;SDS011;20720;48.886;9.388;2022-11-15T14:40:42;3.65;;;1.88;;
34481;SDS011;20720;48.886;9.388;2022-11-15T14:43:09;3.40;;;1.65;;
34481;SDS011;20720;48.886;9.388;2022-11-15T14:45:36;3.33;;;1.75;;
34481;SDS011;20720;48.886;9.388;2022-11-15T14:48:02;5.75;;;1.60;;
34481;SDS011;20720;48.886;9.388;2022-11-15T14:50:27;5.30;;;2.53;;
34481;SDS011;20720;48.886;9.388;2022-11-15T14:52:53;4.25;;;1.98;;
34481;SDS011;20720;48.886;9.388;2022-11-15T14:55:23;5.82;;;2.50;;
34481;SDS011;20720;48.886;9.388;2022-11-15T14:57:51;4.80;;;2.20;;
34481;SDS011;20720;48.886;9.388;2022-11-15T15:00:20;6.20;;;2.25;;
34481;SDS011;20720;48.886;9.388;2022-11-15T15:02:46;4.68;;;1.80;;
34481;SDS011;20720;48.886;9.388;2022-11-15T15:05:13;5.93;;;2.05;;
34481;SDS011;20720;48.886;9.388;2022-11-15T15:07:44;8.82;;;2.30;;
34481;SDS011;20720;48.886;9.388;2022-11-15T15:10:10;5.03;;;2.13;;
34481;SDS011;20720;48.886;9.388;2022-11-15T15:12:35;4.80;;;2.00;;
34481;SDS011;20720;48.886;9.388;2022-11-15T15:15:01;6.80;;;2.15;;
34481;SDS011;20720;48.886;9.388;2022-11-15T15:17:26;9.00;;;3.00;;
34481;SDS011;20720;48.886;9.388;2022-11-15T15:19:51;6.63;;;3.17;;
34481;SDS011;20720;48.886;9.388;2022-11-15T15:22:17;7.65;;;3.95;;
34481;SDS011;20720;48.886;9.388;2022-11-15T15:24:44;7.93;;;3.88;;
34481;SDS011;20720;48.886;9.388;2022-11-15T15:27:11;11.98;;;3.92;;
34481;SDS011;20720;48.886;9.388;2022-11-15T15:29:37;5.32;;;2.83;;
34481;SDS011;20720;48.886;9.388;2022-11-15T15:32:02;5.50;;;3.15;;
34481;SDS011;20720;48.886;9.388;2022-11-15T15:34:28;5.75;;;3.25;;
34481;SDS011;20720;48.886;9.388;2022-11-15T15:39:49;11.20;;;2.78;;
34481;SDS011;20720;48.886;9.388;2022-11-15T15:42:15;6.78;;;3.00;;
34481;SDS011;20720;48.886;9.388;2022-11-15T15:44:41;11.85;;;6.65;;
34481;SDS011;20720;48.886;9.388;2022-11-15T15:47:13;11.77;;;5.50;;
34481;SDS011;20720;48.886;9.388;2022-11-15T15:49:42;7.50;;;3.35;;
34481;SDS011;20720;48.886;9.388;2022-11-15T15:52:07;6.25;;;3.22;;
34481;SDS011;20720;48.886;9.388;2022-11-15T15:54:32;5.03;;;2.65;;
34481;SDS011;20720;48.886;9.388;2022-11-15T15:56:58;5.20;;;2.42;;
34481;SDS011;20720;48.886;9.388;2022-11-15T15:59:23;4.30;;;2.10;;
34481;SDS011;20720;48.886;9.388;2022-11-15T16:01:48;5.97;;;2.10;;
34481;SDS011;20720;48.886;9.388;2022-11-15T16:04:14;5.55;;;2.22;;
34481;SDS011;20720;48.886;9.388;2022-11-15T16:06:39;8.18;;;2.47;;
34481;SDS011;20720;48.886;9.388;2022-11-15T16:09:10;4.25;;;1.92;;
34481;SDS011;20720;48.886;9.388;2022-11-15T16:11:38;5.43;;;2.30;;
34481;SDS011;20720;48.886;9.388;2022-11-15T16:14:03;5.32;;;2.63;;
34481;SDS011;20720;48.886;9.388;2022-11-15T16:16:29;5.97;;;2.70;;
34481;SDS011;20720;48.886;9.388;2022-11-15T16:18:54;3.85;;;2.35;;
34481;SDS011;20720;48.886;9.388;2022-11-15T16:21:19;4.82;;;2.58;;
34481;SDS011;20720;48.886;9.388;2022-11-15T16:23:44;4.65;;;2.53;;
34481;SDS011;20720;48.886;9.388;2022-11-15T16:26:20;4.30;;;2.50;;
34481;SDS011;20720;48.886;9.388;2022-11-15T16:28:47;4.80;;;2.78;;
34481;SDS011;20720;48.886;9.388;2022-11-15T16:31:13;6.63;;;2.88;;
34481;SDS011;20720;48.886;9.388;2022-11-15T16:33:39;6.50;;;2.38;;
34481;SDS011;20720;48.886;9.388;2022-11-15T16:36:12;5.50;;;2.45;;
34481;SDS011;20720;48.886;9.388;2022-11-15T16:38:43;6.90;;;2.22;;
34481;SDS011;20720;48.886;9.388;2022-11-15T16:41:08;3.88;;;1.95;;
34481;SDS011;20720;48.886;9.388;2022-11-15T16:43:34;5.65;;;2.50;;
34481;SDS011;20720;48.886;9.388;2022-11-15T16:46:01;6.10;;;2.15;;
34481;SDS011;20720;48.886;9.388;2022-11-15T16:48:33;8.98;;;3.10;;
34481;SDS011;20720;48.886;9.388;2022-11-15T16:50:59;6.47;;;2.72;;
34481;SDS011;20720;48.886;9.388;2022-11-15T16:53:25;5.30;;;2.78;;
34481;SDS011;20720;48.886;9.388;2022-11-15T16:55:51;4.40;;;2.65;;
34481;SDS011;20720;48.886;9.388;2022-11-15T16:58:17;6.50;;;2.95;;
34481;SDS011;20720;48.886;9.388;2022-11-15T17:00:42;5.38;;;3.00;;
34481;SDS011;20720;48.886;9.388;2022-11-15T17:03:07;6.60;;;3.00;;
34481;SDS011;20720;48.886;9.388;2022-11-15T17:05:33;7.38;;;2.83;;